Airfield :
LOGIN :

Register | Disclaimer

   EN    FR    IT 

 










Legend :    VFR   Marginal VFR   IFR   Intensive IFR   Very Intensive IFR
Visi :
Ceiling :
>= 8 km
>= 3000ft
5 to 8 km
1000 to 3000 ft
1500m to 5 km
500 to 1000 ft
800 to 1500m
200 to 500 ft
< 800m
< 200 ft
Symbols :   Thunderstorms  Fog  Heavy snow  Heavy precipitations  Wind > 20 kt
SIGMETs :     Misc.  Thunderstorms  Icing  Turbulence  Mountain Waves  Volcanic Ashes






- Airport Elevation : 177 ft
- IATA code : AYT


LTAI - Antalya

CURRENT METAR :
  • 171250Z 13006KT 070V160 CAVOK 19/01 Q1018 NOSIG RMK RWY18C 10006KT 060V120 RWY36R 13006KT 100V170 RWY18L 09004KT 040V130

EXPIRED METARs :
  • 171220Z 13007KT 090V170 CAVOK 19/02 Q1018 NOSIG RMK RWY18C 06004KT 350V130 RWY36R 09006KT 040V170 RWY18L 13005KT 070V180
  • 171150Z 06007KT 020V100 CAVOK 20/01 Q1018 NOSIG RMK RWY18C 36005KT 300V070 RWY36R 08006KT 020V110 RWY18L VRB05KT
  • 171120Z 06007KT 030V110 CAVOK 19/01 Q1018 NOSIG RMK RWY18C 04007KT 350V100 RWY36R 07007KT 010V100 RWY18L 04007KT 350V100
  • 171050Z 04008KT 350V070 CAVOK 19/M00 Q1019 NOSIG RMK RWY18C 02008KT 340V050 RWY36R 03005KT 340V070 RWY18L 01008KT 330V030
  • 171020Z 04009KT 010V080 CAVOK 19/M00 Q1019 NOSIG RMK RWY18C 01008KT 350V050 RWY36R 36008KT 340V050 RWY18L 02010KT

TAF TAF LTAI
Valid from the 17 at 12:00 until the 18 at 12:00 UTC


171040Z 1712/1812 34008KT CAVOK
BECMG 1808/1812 16010KT



MET'MAP, your aeronautical weather chart ! - Copyright ORBIFLY December 2007 - Disclaimer

ORBIFLY MET'MAP TEAM :

Programming & Development : Alexandra Zaïnal
Concept & original design : Baudouin d'Aumeries
Assistance for programming : Marc-Olivier Méhu
Technical & hardware support : Manuel Goepfert

Contact : metmap@orbifly.com




SOURCES & CREDITS :

   NOAA